Barryton, Michigan
Current Conditions -  °F | °C
As of 11:35 AM on Saturday 22 Nov 2014 (Local Time) from KRQB Reporting Station
Moderate Fog Moderate Fog  
Wind Chill: 31°   Ceiling: 200
Heat Index: 36°   Visibility: 0.5mi
Dew Point: 35°   Wind: 6mph
Humidity: 97%   Direction: 210°SSW
Pressure: 29.92"   Gusts: NA
Location:  43.75°N, 85.15°W
Report Text: KRQB 221635Z AUTO 21005KT 1/2SM FG OVC002 02/02 A2992 RMK AO2 T00220018
Loading
Personal Weather Stations






























Interactive Weather Map New forecast layout! Learn more

10-Day Weather Forecast

Advertisements
Track Severe Weather on mobile